»·PEaware :: CPZ6088 KPDX-KLAX

CPZ6088 :: KPDX-KLAX

FLIGHT INFORMATION

Flight Status: Arrived
Operator:
Compass Airlines
More flights by this operator :: More flights under this callsign
Pilot: Daniel W. (24238)
Aircraft: Unknown
(B170)
More flights by this aircraft type
Origin: KPDX Portland Intl
United States
Destination: KLAX Los Angeles Intl
United States
More flights between these airports :: More routes between these airports
Route: HRMNS5 HRMNS J189 LIN BURGL IRNMN2
File this flight plan on PilotEdge
Remarks: PBN / A1B1C1D1L1O1S1 NAV / RNVD1E2A1 DOF / 200204 REG / N204NN EET / KZOA0038 KZLA0117 CODE / A1A218 RVR / 200 PER / C
Altitude:
(Current/Filed)
35,000ft
Speed:
(Current/Filed)
412kts
Departed: 04-Feb-20 02:46 PM
Arrived: 04-Feb-20 04:31 PM
Distance/Time
Traveled:
725nm/1:45
Distance/Time
To Go:
Arrived

Flight Plot

Page will automatically refresh every two minutes.

Flight plan parsing failed; only flown route is shown


Map Options




Map Legend


Flown Route
Filed Route
Departure Airport
Arrival Airport
Navaid (VOR, NDB)
Fix

Horizontal Profiles

Position Reports

Time Latitude Longitude Heading Altitude Ground
Speed
04-Feb-20 14:16 45.589604 -122.599489 58 39ft 0kts
04-Feb-20 14:17 45.589604 -122.599489 58 39ft 0kts
04-Feb-20 14:18 45.589604 -122.599489 58 39ft 0kts
04-Feb-20 14:19 45.589604 -122.599489 58 39ft 0kts
04-Feb-20 14:20 45.589604 -122.599489 58 39ft 0kts
04-Feb-20 14:21 45.589604 -122.599489 58 39ft 0kts
04-Feb-20 14:22 45.589604 -122.599489 58 39ft 0kts
04-Feb-20 14:23 45.589604 -122.599489 58 39ft 0kts
04-Feb-20 14:24 45.589604 -122.599489 58 39ft 0kts
04-Feb-20 14:25 45.589604 -122.599489 58 39ft 0kts
04-Feb-20 14:26 45.589604 -122.599489 58 39ft 0kts
04-Feb-20 14:27 45.589604 -122.599489 58 39ft 0kts
04-Feb-20 14:28 45.589604 -122.599489 58 39ft 0kts
04-Feb-20 14:29 45.589604 -122.599489 58 39ft 0kts
04-Feb-20 14:30 45.589604 -122.599489 58 39ft 0kts
04-Feb-20 14:31 45.589604 -122.599489 58 39ft 0kts
04-Feb-20 14:32 45.589604 -122.599489 58 39ft 0kts
04-Feb-20 14:33 45.589604 -122.599489 58 39ft 0kts
04-Feb-20 14:34 45.589604 -122.599489 58 39ft 0kts
04-Feb-20 14:35 45.589604 -122.599489 58 39ft 0kts
04-Feb-20 14:36 45.589421 -122.599815 37 39ft 2kts
04-Feb-20 14:37 45.588805 -122.599808 320 39ft 0kts
04-Feb-20 14:38 45.588807 -122.599810 320 39ft 0kts
04-Feb-20 14:39 45.588809 -122.599813 320 39ft 0kts
04-Feb-20 14:40 45.589108 -122.600564 298 39ft 6kts
04-Feb-20 14:41 45.590917 -122.602508 44 39ft 12kts
04-Feb-20 14:42 45.593817 -122.598374 45 39ft 13kts
04-Feb-20 14:43 45.594429 -122.597514 45 39ft 0kts
04-Feb-20 14:44 45.595064 -122.596420 81 39ft 9kts
04-Feb-20 14:45 45.584566 -122.569509 122 627ft 164kts
04-Feb-20 14:46 45.570346 -122.498216 96 3736ft 237kts
04-Feb-20 14:47 45.554773 -122.395702 104 7892ft 281kts
04-Feb-20 14:48 45.504362 -122.309549 170 11618ft 325kts
04-Feb-20 14:49 45.408597 -122.314874 195 14695ft 359kts
04-Feb-20 14:50 45.305405 -122.333989 191 17647ft 388kts
04-Feb-20 14:51 45.194971 -122.351269 192 20156ft 408kts
04-Feb-20 14:52 45.080312 -122.369606 192 22329ft 424kts
04-Feb-20 14:53 44.960529 -122.388644 192 24258ft 441kts
04-Feb-20 14:54 44.834791 -122.364601 172 26055ft 468kts
04-Feb-20 14:55 44.704185 -122.330762 173 27660ft 487kts
04-Feb-20 14:56 44.568550 -122.296710 173 29268ft 502kts
04-Feb-20 14:57 44.428903 -122.262310 172 30688ft 518kts
04-Feb-20 14:58 44.284212 -122.227033 171 31813ft 536kts
04-Feb-20 14:59 44.135239 -122.190899 170 32962ft 548kts
04-Feb-20 15:00 43.984916 -122.154627 169 34339ft 550kts
04-Feb-20 15:01 43.834192 -122.118461 169 35405ft 545kts
04-Feb-20 15:02 43.685527 -122.082994 170 35451ft 541kts
04-Feb-20 15:03 43.537668 -122.047908 170 35446ft 537kts
04-Feb-20 15:04 43.390605 -122.013194 170 35444ft 534kts
04-Feb-20 15:05 43.243968 -121.978727 170 35439ft 534kts
04-Feb-20 15:06 43.097731 -121.944529 169 35453ft 532kts
04-Feb-20 15:07 42.952217 -121.910662 169 35452ft 529kts
04-Feb-20 15:08 42.807556 -121.877160 169 35445ft 526kts
04-Feb-20 15:09 42.663255 -121.843895 169 35433ft 525kts
04-Feb-20 15:10 42.519542 -121.810924 169 35394ft 523kts
04-Feb-20 15:11 42.376002 -121.778144 169 35386ft 522kts
04-Feb-20 15:12 42.232282 -121.745474 169 35383ft 523kts
04-Feb-20 15:13 42.088727 -121.714748 171 35379ft 522kts
04-Feb-20 15:14 41.945075 -121.688022 171 35382ft 523kts
04-Feb-20 15:15 41.800563 -121.661294 171 35388ft 523kts
04-Feb-20 15:16 41.656560 -121.634581 171 35373ft 523kts
04-Feb-20 15:17 41.512531 -121.607909 171 35371ft 523kts
04-Feb-20 15:18 41.368245 -121.581296 170 35372ft 524kts
04-Feb-20 15:19 41.223524 -121.554723 170 35366ft 524kts
04-Feb-20 15:20 41.079449 -121.528386 170 35364ft 523kts
04-Feb-20 15:21 40.934983 -121.502080 170 35362ft 523kts
04-Feb-20 15:22 40.790804 -121.475966 170 35360ft 523kts
04-Feb-20 15:23 40.646467 -121.449925 170 35359ft 523kts
04-Feb-20 15:24 40.502295 -121.424020 170 35356ft 523kts
04-Feb-20 15:25 40.358197 -121.398252 170 35349ft 523kts
04-Feb-20 15:26 40.214357 -121.372640 170 35336ft 522kts
04-Feb-20 15:27 40.069864 -121.347012 170 35333ft 522kts
04-Feb-20 15:28 39.925924 -121.321613 169 35328ft 521kts
04-Feb-20 15:29 39.782207 -121.296337 169 35313ft 522kts
04-Feb-20 15:30 39.638328 -121.271143 169 35313ft 522kts
04-Feb-20 15:31 39.493943 -121.245969 169 35311ft 523kts
04-Feb-20 15:32 39.349583 -121.220910 169 35292ft 523kts
04-Feb-20 15:33 39.205386 -121.195976 169 35276ft 525kts
04-Feb-20 15:34 39.060828 -121.171088 169 35271ft 522kts
04-Feb-20 15:35 38.920960 -121.147113 169 35270ft 522kts
04-Feb-20 15:36 38.776663 -121.122460 169 35272ft 525kts
04-Feb-20 15:37 38.632206 -121.097895 169 35276ft 522kts
04-Feb-20 15:38 38.487955 -121.073464 169 35276ft 522kts
04-Feb-20 15:39 38.343861 -121.049145 169 35270ft 524kts
04-Feb-20 15:40 38.199073 -121.024816 169 35278ft 523kts
04-Feb-20 15:41 38.055640 -120.997976 157 35283ft 516kts
04-Feb-20 15:42 37.918583 -120.944145 157 35284ft 515kts
04-Feb-20 15:43 37.780789 -120.891443 157 35296ft 516kts
04-Feb-20 15:44 37.643411 -120.839104 157 35301ft 518kts
04-Feb-20 15:45 37.505402 -120.786766 157 35315ft 516kts
04-Feb-20 15:46 37.368105 -120.734914 157 35351ft 516kts
04-Feb-20 15:47 37.230367 -120.683083 157 35349ft 515kts
04-Feb-20 15:48 37.093197 -120.631659 157 35291ft 516kts
04-Feb-20 15:49 36.955457 -120.580224 157 35291ft 516kts
04-Feb-20 15:50 36.817833 -120.529022 158 35314ft 516kts
04-Feb-20 15:51 36.679931 -120.477913 158 35297ft 516kts
04-Feb-20 15:52 36.542135 -120.427033 158 35291ft 515kts
04-Feb-20 15:54 36.404802 -120.376520 158 35290ft 516kts
04-Feb-20 15:55 36.267084 -120.326041 158 35288ft 516kts
04-Feb-20 15:56 36.129082 -120.275640 158 35284ft 517kts
04-Feb-20 15:57 35.991025 -120.225424 158 35277ft 516kts
04-Feb-20 15:58 35.852842 -120.175333 158 35268ft 516kts
04-Feb-20 15:59 35.715519 -120.125735 158 35260ft 516kts
04-Feb-20 16:00 35.589056 -120.052281 139 35364ft 499kts
04-Feb-20 16:01 35.470383 -119.961639 139 33920ft 509kts
04-Feb-20 16:02 35.348498 -119.869737 139 31126ft 518kts
04-Feb-20 16:03 35.230170 -119.770478 133 28335ft 512kts
04-Feb-20 16:04 35.117951 -119.665390 134 25998ft 501kts
04-Feb-20 16:05 35.009568 -119.564455 135 24247ft 479kts
04-Feb-20 16:06 34.905487 -119.468018 136 22595ft 461kts
04-Feb-20 16:07 34.803802 -119.376712 137 20986ft 447kts
04-Feb-20 16:08 34.704086 -119.288361 138 19382ft 442kts
04-Feb-20 16:09 34.605492 -119.202784 138 17845ft 433kts
04-Feb-20 16:09 34.523965 -119.131818 139 16378ft 421kts
04-Feb-20 16:11 34.419137 -119.039586 139 14741ft 380kts
04-Feb-20 16:12 34.335980 -118.967321 139 13426ft 360kts
04-Feb-20 16:13 34.256946 -118.895767 139 12175ft 350kts
04-Feb-20 16:13 34.196679 -118.840417 139 11344ft 338kts
04-Feb-20 16:15 34.115861 -118.759142 135 10564ft 308kts
04-Feb-20 16:16 34.052679 -118.689881 135 9407ft 306kts
04-Feb-20 16:16 34.023066 -118.623730 94 8955ft 279kts
04-Feb-20 16:17 34.015224 -118.532808 93 7853ft 252kts
04-Feb-20 16:19 34.012950 -118.439924 72 6687ft 240kts
04-Feb-20 16:19 34.021041 -118.376786 82 5761ft 221kts
04-Feb-20 16:20 34.027291 -118.302543 82 5061ft 222kts
04-Feb-20 16:22 34.034686 -118.216222 82 4646ft 222kts
04-Feb-20 16:22 34.040067 -118.154580 82 4003ft 222kts
04-Feb-20 16:23 34.030180 -118.086373 152 3600ft 223kts
04-Feb-20 16:24 33.973215 -118.090286 224 3599ft 221kts
04-Feb-20 16:25 33.954936 -118.156374 275 3591ft 217kts
04-Feb-20 16:26 33.953859 -118.229253 262 2588ft 207kts
04-Feb-20 16:27 33.946912 -118.288679 263 1642ft 151kts
04-Feb-20 16:28 33.942338 -118.334012 261 954ft 131kts
04-Feb-20 16:29 33.937958 -118.376910 261 263ft 127kts
04-Feb-20 16:30 33.935755 -118.402160 287 135ft 29kts
04-Feb-20 16:31 33.936438 -118.409022 341 135ft 17kts
04-Feb-20 16:32 33.937975 -118.407788 82 135ft 11kts
04-Feb-20 16:33 33.938640 -118.401299 82 135ft 24kts
04-Feb-20 16:34 33.939509 -118.392834 82 135ft 17kts
04-Feb-20 16:35 33.941786 -118.393470 267 135ft 3kts
04-Feb-20 16:36 33.941771 -118.393708 270 135ft 0kts
04-Feb-20 16:37 33.941771 -118.393708 270 135ft 0kts
04-Feb-20 16:38 33.941771 -118.393708 270 135ft 0kts
04-Feb-20 16:39 33.941771 -118.393708 270 135ft 0kts
04-Feb-20 16:40 33.941771 -118.393708 270 135ft 0kts
04-Feb-20 16:41 33.941771 -118.393708 270 135ft 0kts

Navigation Log

Ident Type
Flight plan parsing failed, navigation log unavailable